createdAt,value
2018-09-08T00:01:59.292Z,16.86
2018-09-08T00:04:28.155Z,16.97
2018-09-08T00:07:03.139Z,17.09
2018-09-08T00:09:32.218Z,17.22
2018-09-08T00:12:01.386Z,17.26
2018-09-08T00:14:30.706Z,17.23
2018-09-08T00:17:04.873Z,17.21
2018-09-08T00:19:39.607Z,17.12
2018-09-08T00:22:13.695Z,17.12
2018-09-08T00:24:48.014Z,17.05
2018-09-08T00:27:21.262Z,16.99
2018-09-08T00:29:51.781Z,16.92
2018-09-08T00:32:22.214Z,16.82
2018-09-08T00:34:51.155Z,16.68
2018-09-08T00:37:20.639Z,16.56
2018-09-08T00:39:51.945Z,16.46
2018-09-08T00:42:21.307Z,16.39
2018-09-08T00:44:50.291Z,16.23
2018-09-08T00:47:19.306Z,16.15
2018-09-08T00:49:48.622Z,16.11
2018-09-08T00:52:17.527Z,16.10
2018-09-08T00:54:46.654Z,16.03
2018-09-08T00:57:15.792Z,16.06
2018-09-08T00:59:44.947Z,16.12
2018-09-08T01:02:14.255Z,16.02
2018-09-08T01:04:43.331Z,15.99
2018-09-08T01:07:17.507Z,15.98
2018-09-08T01:09:47.002Z,15.93
2018-09-08T01:12:16.282Z,15.88
2018-09-08T01:14:45.157Z,15.80
2018-09-08T01:17:14.109Z,15.74
2018-09-08T01:19:43.215Z,15.74
2018-09-08T01:22:12.831Z,15.76
2018-09-08T01:24:42.173Z,15.77
2018-09-08T01:27:11.311Z,15.83
2018-09-08T01:29:40.259Z,15.81
2018-09-08T01:32:09.970Z,15.80
2018-09-08T01:34:39.131Z,15.74
2018-09-08T01:37:08.242Z,15.71
2018-09-08T01:39:37.602Z,15.67
2018-09-08T01:42:06.719Z,15.71
2018-09-08T01:44:35.738Z,15.75
2018-09-08T01:47:04.954Z,15.82
2018-09-08T01:49:34.082Z,15.86
2018-09-08T01:52:02.898Z,15.83
2018-09-08T01:54:31.970Z,15.87
2018-09-08T01:57:01.015Z,15.89
2018-09-08T01:59:30.173Z,15.88
2018-09-08T02:01:59.269Z,15.84
2018-09-08T02:04:28.211Z,15.81
2018-09-08T02:06:57.200Z,15.79
2018-09-08T02:09:26.543Z,15.75
2018-09-08T02:11:55.608Z,15.70
2018-09-08T02:14:24.710Z,15.66
2018-09-08T02:16:53.930Z,15.62
2018-09-08T02:19:22.794Z,15.57
2018-09-08T02:21:51.791Z,15.46
2018-09-08T02:24:21.117Z,15.41
2018-09-08T02:26:50.088Z,15.37
2018-09-08T02:29:19.086Z,15.38
2018-09-08T02:31:48.098Z,15.41
2018-09-08T02:34:17.685Z,15.32
2018-09-08T02:36:46.766Z,15.29
2018-09-08T02:39:16.410Z,15.21
2018-09-08T02:41:45.218Z,15.14
2018-09-08T02:44:14.376Z,15.12
2018-09-08T02:46:43.487Z,15.04
2018-09-08T02:49:12.479Z,15.05
2018-09-08T02:51:39.937Z,15.08
2018-09-08T02:54:07.322Z,15.11
2018-09-08T02:56:34.658Z,15.15
2018-09-08T02:59:01.989Z,15.09
2018-09-08T03:01:29.358Z,15.05
2018-09-08T03:03:56.829Z,15.05
2018-09-08T03:06:24.169Z,14.99
2018-09-08T03:08:51.542Z,14.85
2018-09-08T03:11:18.867Z,14.80
2018-09-08T03:13:46.198Z,14.77
2018-09-08T03:16:13.584Z,14.87
2018-09-08T03:18:40.912Z,14.94
2018-09-08T03:21:08.423Z,14.92
2018-09-08T03:23:35.795Z,14.93
2018-09-08T03:26:03.218Z,14.95
2018-09-08T03:28:30.547Z,14.94
2018-09-08T03:30:58.366Z,14.92
2018-09-08T03:33:25.723Z,14.92
2018-09-08T03:35:53.186Z,14.91
2018-09-08T03:38:21.645Z,14.85
2018-09-08T03:40:49.933Z,14.77
2018-09-08T03:43:18.322Z,14.75
2018-09-08T03:45:45.901Z,14.61
2018-09-08T03:48:13.235Z,14.62
2018-09-08T03:50:40.572Z,14.66
2018-09-08T03:53:07.995Z,14.77
2018-09-08T03:55:35.327Z,14.81
2018-09-08T03:58:02.751Z,14.85
2018-09-08T04:00:30.114Z,14.93
2018-09-08T04:02:59.278Z,14.89
2018-09-08T04:05:28.224Z,14.85
2018-09-08T04:07:57.547Z,14.73
2018-09-08T04:10:26.800Z,14.90
2018-09-08T04:12:55.795Z,15.20
2018-09-08T04:15:25.106Z,15.35
2018-09-08T04:17:54.202Z,15.61
2018-09-08T04:20:23.294Z,15.76
2018-09-08T04:22:52.427Z,15.95
2018-09-08T04:25:21.479Z,16.15
2018-09-08T04:27:50.360Z,16.46
2018-09-08T04:30:19.699Z,16.98
2018-09-08T04:32:48.983Z,17.45
2018-09-08T04:35:17.966Z,17.90
2018-09-08T04:37:47.099Z,18.49
2018-09-08T04:40:16.379Z,18.75
2018-09-08T04:42:45.244Z,19.21
2018-09-08T04:45:14.303Z,19.92
2018-09-08T04:47:43.257Z,20.29
2018-09-08T04:50:12.329Z,20.32
2018-09-08T04:52:41.275Z,20.06
2018-09-08T04:55:10.476Z,19.96
2018-09-08T04:57:39.459Z,20.15
2018-09-08T05:00:09.613Z,20.23
2018-09-08T05:02:39.063Z,19.86
2018-09-08T05:05:08.137Z,19.33
2018-09-08T05:07:37.667Z,18.89
2018-09-08T05:10:07.167Z,18.50
2018-09-08T05:12:36.239Z,18.11
2018-09-08T05:15:05.182Z,17.85
2018-09-08T05:17:34.232Z,17.71
2018-09-08T05:20:03.534Z,17.62
2018-09-08T05:22:32.630Z,17.52
2018-09-08T05:25:01.652Z,17.41
2018-09-08T05:27:31.276Z,17.57
2018-09-08T05:30:00.474Z,18.54
2018-09-08T05:32:29.658Z,19.74
2018-09-08T05:34:59.560Z,21.01
2018-09-08T05:37:28.473Z,22.11
2018-09-08T05:39:57.999Z,22.74
2018-09-08T05:42:27.178Z,23.59
2018-09-08T05:44:56.171Z,24.36
2018-09-08T05:47:25.357Z,25.07
2018-09-08T05:49:55.587Z,25.62
2018-09-08T05:52:25.075Z,25.79
2018-09-08T05:54:54.139Z,26.46
2018-09-08T05:57:23.657Z,26.57
2018-09-08T05:59:52.613Z,27.02
2018-09-08T06:02:21.510Z,27.49
2018-09-08T06:04:50.835Z,27.71
2018-09-08T06:07:19.955Z,27.50
2018-09-08T06:09:49.062Z,27.73
2018-09-08T06:12:18.539Z,28.19
2018-09-08T06:14:48.614Z,28.52
2018-09-08T06:17:17.413Z,29.06
2018-09-08T06:19:46.573Z,28.68
2018-09-08T06:22:15.483Z,27.58
2018-09-08T06:24:44.591Z,27.53
2018-09-08T06:27:13.698Z,26.97
2018-09-08T06:29:42.743Z,27.08
2018-09-08T06:32:11.851Z,26.17
2018-09-08T06:34:40.890Z,26.91
2018-09-08T06:37:09.872Z,26.30
2018-09-08T06:39:39.141Z,25.76
2018-09-08T06:42:08.463Z,27.43
2018-09-08T06:44:37.684Z,26.06
2018-09-08T06:47:06.634Z,26.45
2018-09-08T06:49:35.700Z,26.83
2018-09-08T06:52:04.665Z,26.99
2018-09-08T06:54:33.646Z,27.06
2018-09-08T06:57:03.064Z,26.97
2018-09-08T06:59:32.262Z,26.43
2018-09-08T07:02:01.538Z,25.92
2018-09-08T07:04:30.974Z,26.51
2018-09-08T07:07:00.127Z,26.48
2018-09-08T07:09:29.132Z,26.56
2018-09-08T07:11:57.974Z,27.48
2018-09-08T07:14:27.142Z,27.78
2018-09-08T07:16:56.443Z,28.22
2018-09-08T07:19:25.580Z,27.05
2018-09-08T07:21:54.722Z,27.64
2018-09-08T07:24:24.248Z,27.95
2018-09-08T07:26:53.293Z,28.19
2018-09-08T07:29:22.127Z,28.58
2018-09-08T07:31:51.278Z,28.39
2018-09-08T07:34:20.446Z,28.88
2018-09-08T07:36:49.415Z,28.89
2018-09-08T07:39:18.513Z,28.58
2018-09-08T07:41:47.664Z,28.37
2018-09-08T07:44:16.770Z,28.61
2018-09-08T07:46:45.991Z,28.63
2018-09-08T07:49:15.119Z,28.56
2018-09-08T07:51:44.183Z,27.97
2018-09-08T07:54:13.200Z,28.26
2018-09-08T07:56:42.927Z,27.34
2018-09-08T07:59:11.972Z,26.32
2018-09-08T08:01:41.206Z,26.65
2018-09-08T08:04:10.261Z,27.06
2018-09-08T08:06:39.418Z,27.32
2018-09-08T08:09:09.493Z,27.62
2018-09-08T08:11:38.961Z,27.92
2018-09-08T08:14:08.228Z,27.65
2018-09-08T08:16:37.424Z,27.20
2018-09-08T08:19:06.813Z,26.97
2018-09-08T08:21:35.791Z,27.29
2018-09-08T08:24:04.823Z,27.18
2018-09-08T08:26:34.158Z,26.90
2018-09-08T08:29:03.371Z,27.42
2018-09-08T08:31:32.296Z,27.77
2018-09-08T08:34:01.538Z,28.00
2018-09-08T08:36:30.514Z,28.02
2018-09-08T08:38:59.582Z,27.74
2018-09-08T08:41:29.022Z,27.86
2018-09-08T08:43:57.990Z,27.61
2018-09-08T08:46:27.004Z,27.46
2018-09-08T08:48:56.290Z,27.66
2018-09-08T08:51:36.256Z,27.82
2018-09-08T08:54:19.794Z,28.11
2018-09-08T08:56:48.916Z,28.35
2018-09-08T08:59:18.484Z,28.02
2018-09-08T09:01:47.519Z,27.30
2018-09-08T09:04:16.594Z,26.58
2018-09-08T09:06:45.282Z,26.57
2018-09-08T09:09:15.403Z,26.92
2018-09-08T09:11:45.358Z,27.42
2018-09-08T09:14:14.634Z,27.97
2018-09-08T09:16:43.822Z,28.28
2018-09-08T09:19:34.927Z,28.76
2018-09-08T09:22:16.314Z,29.16
2018-09-08T09:24:52.607Z,29.20
2018-09-08T09:27:21.955Z,29.52
2018-09-08T09:29:50.870Z,29.58
2018-09-08T09:32:20.035Z,29.16
2018-09-08T09:34:49.582Z,29.22
2018-09-08T09:37:18.828Z,28.20
2018-09-08T09:39:48.367Z,28.79
2018-09-08T09:42:17.570Z,28.89
2018-09-08T09:44:46.486Z,29.06
2018-09-08T09:47:15.886Z,28.82
2018-09-08T09:49:45.095Z,28.12
2018-09-08T09:52:14.041Z,27.91
2018-09-08T09:54:42.977Z,27.43
2018-09-08T09:57:12.339Z,27.91
2018-09-08T09:59:41.566Z,27.82
2018-09-08T10:02:19.091Z,27.78
2018-09-08T10:04:48.132Z,27.92
2018-09-08T10:07:17.209Z,27.94
2018-09-08T10:09:46.664Z,27.26
2018-09-08T10:12:15.615Z,26.57
2018-09-08T10:14:44.544Z,26.42
2018-09-08T10:17:14.055Z,26.72
2018-09-08T10:19:43.682Z,27.04
2018-09-08T10:22:12.935Z,27.13
2018-09-08T10:24:42.193Z,27.32
2018-09-08T10:27:11.271Z,27.44
2018-09-08T10:29:40.588Z,27.54
2018-09-08T10:32:10.259Z,27.67
2018-09-08T10:34:39.181Z,27.82
2018-09-08T10:37:08.079Z,27.82
2018-09-08T10:39:37.175Z,27.94
2018-09-08T10:42:06.133Z,28.05
2018-09-08T10:44:35.431Z,28.20
2018-09-08T10:47:04.942Z,27.36
2018-09-08T10:49:34.049Z,26.82
2018-09-08T10:52:19.137Z,26.74
2018-09-08T10:54:48.715Z,26.71
2018-09-08T10:57:18.243Z,26.71
2018-09-08T10:59:47.503Z,26.96
2018-09-08T11:02:16.752Z,27.08
2018-09-08T11:04:46.655Z,27.32
2018-09-08T11:07:15.758Z,27.73
2018-09-08T11:09:44.772Z,28.24
2018-09-08T11:12:13.943Z,28.25
2018-09-08T11:14:43.211Z,28.28
2018-09-08T11:17:12.141Z,28.27
2018-09-08T11:19:41.339Z,28.06
2018-09-08T11:22:10.545Z,27.42
2018-09-08T11:24:39.523Z,26.87
2018-09-08T11:27:08.530Z,26.14
2018-09-08T11:29:37.828Z,26.29
2018-09-08T11:32:06.914Z,26.25
2018-09-08T11:34:36.000Z,26.55
2018-09-08T11:37:05.946Z,26.40
2018-09-08T11:39:34.945Z,26.56
2018-09-08T11:42:04.040Z,26.14
2018-09-08T11:44:33.446Z,24.58
2018-09-08T11:47:02.757Z,23.37
2018-09-08T11:49:32.087Z,22.94
2018-09-08T11:52:01.476Z,22.47
2018-09-08T11:54:30.550Z,22.19
2018-09-08T11:56:59.527Z,22.11
2018-09-08T11:59:28.847Z,21.83
2018-09-08T12:01:58.442Z,21.15
2018-09-08T12:04:27.647Z,20.08
2018-09-08T12:06:56.886Z,19.07
2018-09-08T12:09:25.938Z,18.59
2018-09-08T12:11:54.862Z,18.39
2018-09-08T12:14:24.151Z,18.41
2018-09-08T12:16:53.102Z,18.54
2018-09-08T12:19:22.108Z,18.65
2018-09-08T12:21:51.616Z,18.60
2018-09-08T12:24:20.713Z,18.69
2018-09-08T12:26:49.716Z,18.88
2018-09-08T12:29:19.157Z,19.14
2018-09-08T12:31:48.067Z,19.56
2018-09-08T12:34:16.899Z,19.97
2018-09-08T12:36:46.428Z,20.42
2018-09-08T12:39:15.499Z,21.01
2018-09-08T12:41:44.702Z,21.39
2018-09-08T12:44:13.946Z,21.82
2018-09-08T12:46:43.484Z,22.18
2018-09-08T12:49:12.360Z,22.58
2018-09-08T12:51:41.414Z,22.89
2018-09-08T12:54:10.479Z,23.30
2018-09-08T12:56:39.482Z,23.55
2018-09-08T12:59:08.814Z,23.78
2018-09-08T13:01:37.903Z,23.94
2018-09-08T13:04:07.424Z,24.22
2018-09-08T13:06:36.416Z,24.28
2018-09-08T13:09:06.190Z,24.30
2018-09-08T13:11:35.317Z,24.38
2018-09-08T13:14:04.767Z,23.02
2018-09-08T13:16:33.574Z,21.66
2018-09-08T13:19:02.663Z,20.80
2018-09-08T13:21:32.157Z,20.79
2018-09-08T13:24:01.026Z,20.96
2018-09-08T13:26:29.940Z,21.27
2018-09-08T13:28:59.264Z,21.67
2018-09-08T13:31:28.263Z,22.24
2018-09-08T13:33:57.304Z,22.75
2018-09-08T13:36:27.651Z,23.10
2018-09-08T13:38:56.811Z,23.38
2018-09-08T13:41:25.958Z,23.56
2018-09-08T13:43:55.522Z,23.67
2018-09-08T13:46:24.559Z,23.80
2018-09-08T13:48:53.467Z,23.95
2018-09-08T13:51:22.774Z,24.05
2018-09-08T13:53:51.884Z,24.00
2018-09-08T13:56:20.959Z,24.08
2018-09-08T13:58:49.909Z,24.17
2018-09-08T14:01:19.171Z,24.10
2018-09-08T14:03:48.286Z,24.08
2018-09-08T14:06:17.809Z,24.09
2018-09-08T14:08:46.862Z,23.94
2018-09-08T14:11:15.674Z,23.95
2018-09-08T14:13:45.208Z,24.10
2018-09-08T14:16:14.352Z,24.30
2018-09-08T14:18:43.482Z,24.45
2018-09-08T14:21:12.691Z,24.51
2018-09-08T14:23:41.959Z,24.70
2018-09-08T14:26:11.055Z,24.73
2018-09-08T14:28:40.655Z,24.89
2018-09-08T14:31:09.544Z,24.95
2018-09-08T14:33:38.908Z,24.95
2018-09-08T14:36:08.204Z,24.78
2018-09-08T14:38:37.164Z,24.89
2018-09-08T14:41:06.162Z,24.82
2018-09-08T14:43:35.395Z,24.81
2018-09-08T14:46:04.465Z,24.81
2018-09-08T14:48:33.531Z,24.78
2018-09-08T14:51:02.556Z,23.96
2018-09-08T14:53:31.600Z,22.59
2018-09-08T14:56:00.719Z,20.22
2018-09-08T14:58:30.057Z,19.31
2018-09-08T15:00:58.939Z,18.87
2018-09-08T15:03:27.837Z,18.77
2018-09-08T15:05:56.983Z,18.73
2018-09-08T15:08:25.909Z,18.67
2018-09-08T15:10:55.240Z,18.89
2018-09-08T15:13:25.314Z,18.92
2018-09-08T15:15:54.529Z,19.06
2018-09-08T15:18:23.536Z,19.13
2018-09-08T15:20:52.814Z,19.16
2018-09-08T15:23:22.370Z,19.17
2018-09-08T15:25:51.462Z,19.14
2018-09-08T15:28:20.756Z,19.14
2018-09-08T15:30:49.843Z,19.05
2018-09-08T15:33:18.801Z,19.19
2018-09-08T15:35:48.219Z,19.23
2018-09-08T15:38:17.216Z,19.23
2018-09-08T15:40:46.332Z,19.38
2018-09-08T15:43:15.388Z,19.40
2018-09-08T15:45:44.411Z,19.43
2018-09-08T15:48:14.821Z,19.53
2018-09-08T15:50:44.343Z,19.58
2018-09-08T15:53:13.452Z,19.67
2018-09-08T15:55:42.563Z,19.68
2018-09-08T15:58:11.915Z,19.71
2018-09-08T16:00:40.952Z,19.78
2018-09-08T16:03:09.945Z,19.78
2018-09-08T16:05:39.047Z,19.80
2018-09-08T16:08:08.088Z,19.80
2018-09-08T16:10:37.991Z,19.75
2018-09-08T16:13:08.263Z,19.76
2018-09-08T16:15:37.687Z,19.76
2018-09-08T16:18:07.094Z,19.82
2018-09-08T16:20:36.506Z,19.89
2018-09-08T16:23:05.495Z,19.98
2018-09-08T16:25:34.800Z,19.93
2018-09-08T16:28:04.319Z,19.96
2018-09-08T16:30:33.284Z,19.90
2018-09-08T16:33:02.308Z,20.02
2018-09-08T16:35:31.614Z,20.00
2018-09-08T16:38:00.706Z,20.01
2018-09-08T16:40:29.683Z,20.04
2018-09-08T16:42:59.577Z,19.92
2018-09-08T16:45:28.686Z,19.98
2018-09-08T16:47:57.674Z,19.87
2018-09-08T16:50:27.423Z,19.87
2018-09-08T16:52:56.342Z,19.79
2018-09-08T16:55:25.279Z,19.81
2018-09-08T16:57:54.611Z,19.77
2018-09-08T17:00:23.833Z,19.72
2018-09-08T17:02:52.978Z,19.63
2018-09-08T17:05:22.387Z,19.68
2018-09-08T17:07:51.374Z,19.64
2018-09-08T17:10:20.383Z,19.62
2018-09-08T17:12:49.419Z,19.62
2018-09-08T17:15:18.479Z,19.56
2018-09-08T17:17:47.423Z,19.51
2018-09-08T17:20:16.610Z,19.55
2018-09-08T17:22:45.698Z,19.59
2018-09-08T17:25:14.546Z,19.57
2018-09-08T17:27:43.799Z,19.52
2018-09-08T17:30:12.819Z,19.49
2018-09-08T17:32:41.855Z,19.49
2018-09-08T17:35:11.118Z,19.44
2018-09-08T17:37:40.256Z,19.44
2018-09-08T17:40:09.351Z,19.37
2018-09-08T17:42:38.663Z,19.36
2018-09-08T17:45:07.746Z,19.34
2018-09-08T17:47:36.844Z,19.32
2018-09-08T17:50:06.864Z,19.28
2018-09-08T17:52:36.425Z,19.28
2018-09-08T17:55:06.181Z,19.30
2018-09-08T17:57:35.552Z,19.24
2018-09-08T18:00:05.687Z,19.20
2018-09-08T18:02:34.590Z,19.20
2018-09-08T18:05:03.987Z,19.17
2018-09-08T18:07:32.980Z,19.16
2018-09-08T18:10:01.978Z,19.25
2018-09-08T18:12:31.123Z,19.27
2018-09-08T18:15:00.287Z,19.31
2018-09-08T18:17:29.452Z,19.34
2018-09-08T18:19:58.517Z,19.40
2018-09-08T18:22:27.474Z,19.47
2018-09-08T18:24:56.666Z,19.58
2018-09-08T18:27:26.254Z,19.62
2018-09-08T18:29:55.178Z,19.70
2018-09-08T18:32:24.181Z,19.65
2018-09-08T18:34:53.276Z,19.62
2018-09-08T18:37:22.835Z,19.66
2018-09-08T18:39:51.848Z,19.68
2018-09-08T18:42:21.104Z,19.61
2018-09-08T18:44:50.859Z,19.50
2018-09-08T18:47:19.767Z,19.50
2018-09-08T18:49:49.255Z,19.43
2018-09-08T18:52:18.140Z,19.37
2018-09-08T18:54:47.251Z,19.29
2018-09-08T18:57:16.810Z,19.23
2018-09-08T18:59:45.670Z,19.16
2018-09-08T19:02:14.679Z,19.14
2018-09-08T19:04:44.134Z,19.10
2018-09-08T19:07:13.167Z,19.01
2018-09-08T19:09:42.636Z,18.95
2018-09-08T19:12:12.216Z,18.90
2018-09-08T19:14:46.526Z,18.95
2018-09-08T19:17:15.619Z,18.89
2018-09-08T19:19:44.583Z,18.87
2018-09-08T19:22:13.571Z,18.81
2018-09-08T19:24:43.862Z,18.84
2018-09-08T19:27:13.603Z,18.83
2018-09-08T19:29:49.302Z,18.76
2018-09-08T19:32:19.626Z,18.73
2018-09-08T19:34:55.141Z,18.75
2018-09-08T19:37:24.232Z,18.75
2018-09-08T19:39:53.954Z,18.80
2018-09-08T19:42:23.449Z,18.78
2018-09-08T19:44:52.524Z,18.72
2018-09-08T19:47:26.959Z,18.72
2018-09-08T19:49:56.088Z,18.68
2018-09-08T19:52:30.745Z,18.68
2018-09-08T19:55:00.404Z,18.69
2018-09-08T19:57:34.821Z,18.69
2018-09-08T20:00:03.859Z,18.68
2018-09-08T20:02:32.863Z,18.68
2018-09-08T20:05:02.079Z,18.69
2018-09-08T20:07:31.086Z,18.66
2018-09-08T20:09:59.936Z,18.65
2018-09-08T20:12:29.331Z,18.65
2018-09-08T20:14:58.292Z,18.56
2018-09-08T20:17:27.512Z,18.53
2018-09-08T20:19:56.507Z,18.49
2018-09-08T20:22:27.467Z,18.50
2018-09-08T20:24:56.533Z,18.47
2018-09-08T20:27:25.946Z,18.39
2018-09-08T20:29:55.148Z,18.35
2018-09-08T20:32:24.240Z,18.28
2018-09-08T20:34:53.773Z,18.26
2018-09-08T20:37:22.615Z,18.25
2018-09-08T20:39:51.618Z,18.25
2018-09-08T20:42:20.964Z,18.19
2018-09-08T20:44:50.236Z,18.19
2018-09-08T20:47:19.727Z,18.21
2018-09-08T20:49:49.112Z,18.19
2018-09-08T20:52:18.524Z,18.18
2018-09-08T20:54:47.458Z,18.16
2018-09-08T20:57:16.760Z,18.15
2018-09-08T20:59:45.843Z,18.13
2018-09-08T21:02:14.931Z,18.22
2018-09-08T21:04:44.337Z,18.21
2018-09-08T21:07:13.439Z,18.15
2018-09-08T21:09:42.835Z,18.14
2018-09-08T21:12:12.079Z,18.14
2018-09-08T21:14:41.118Z,18.13
2018-09-08T21:17:10.334Z,18.13
2018-09-08T21:19:39.294Z,18.09
2018-09-08T21:22:08.306Z,18.02
2018-09-08T21:24:37.298Z,18.01
2018-09-08T21:27:06.812Z,18.13
2018-09-08T21:29:35.715Z,18.12
2018-09-08T21:32:04.882Z,18.05
2018-09-08T21:34:34.324Z,18.06
2018-09-08T21:37:03.491Z,18.08
2018-09-08T21:39:32.422Z,18.03
2018-09-08T21:42:01.914Z,18.04
2018-09-08T21:44:30.906Z,17.99
2018-09-08T21:46:59.802Z,17.97
2018-09-08T21:49:29.024Z,17.91
2018-09-08T21:51:57.991Z,17.89
2018-09-08T21:54:27.164Z,17.80
2018-09-08T21:56:56.590Z,17.76
2018-09-08T21:59:25.587Z,17.67
2018-09-08T22:01:54.680Z,17.66
2018-09-08T22:04:23.978Z,17.71
2018-09-08T22:06:52.988Z,17.64
2018-09-08T22:09:21.785Z,17.66
2018-09-08T22:11:51.274Z,17.71
2018-09-08T22:14:20.471Z,17.76
2018-09-08T22:16:49.471Z,17.71
2018-09-08T22:19:18.491Z,17.72
2018-09-08T22:21:47.256Z,17.68
2018-09-08T22:24:16.258Z,17.69
2018-09-08T22:26:45.512Z,17.73
2018-09-08T22:29:14.622Z,17.73
2018-09-08T22:31:43.627Z,17.76
2018-09-08T22:34:12.569Z,17.72
2018-09-08T22:36:41.714Z,17.72
2018-09-08T22:39:10.333Z,17.69
2018-09-08T22:41:39.749Z,17.66
2018-09-08T22:44:08.735Z,17.73
2018-09-08T22:46:37.926Z,17.69
2018-09-08T22:49:07.577Z,17.78
2018-09-08T22:51:36.720Z,17.72
2018-09-08T22:54:05.817Z,17.79
2018-09-08T22:56:34.718Z,17.74
2018-09-08T22:59:03.715Z,17.64
2018-09-08T23:01:32.995Z,17.63
2018-09-08T23:04:02.336Z,17.59
2018-09-08T23:06:31.322Z,17.65
2018-09-08T23:09:00.312Z,17.62
2018-09-08T23:11:29.932Z,17.60
2018-09-08T23:13:58.894Z,17.64
2018-09-08T23:16:27.893Z,17.67
2018-09-08T23:18:57.304Z,17.68
2018-09-08T23:21:26.264Z,17.71
2018-09-08T23:23:55.181Z,17.67
2018-09-08T23:26:24.658Z,17.71
2018-09-08T23:28:53.774Z,17.71
2018-09-08T23:31:22.695Z,17.56
2018-09-08T23:33:52.468Z,17.55
2018-09-08T23:36:21.385Z,17.46
2018-09-08T23:38:50.567Z,17.45
2018-09-08T23:41:19.907Z,17.42
2018-09-08T23:43:48.966Z,17.35
2018-09-08T23:46:17.756Z,17.39
2018-09-08T23:48:47.103Z,17.35
2018-09-08T23:51:16.305Z,17.30
2018-09-08T23:53:45.371Z,17.32
2018-09-08T23:56:14.781Z,17.32
2018-09-08T23:58:43.787Z,17.43
